Time;durP1;ratioP1;P1;durP2;ratioP2;P2;SDS_P1;SDS_P2;PMS_P1;PMS_P2;Temp;Humidity;BMP_temperature;BMP_pressure;BME280_temperature;BME280_humidity;BME280_pressure;Samples;Min_cycle;Max_cycle;Signal;HPM_P1;HPM_P2
2022/06/08 00:00:45;;;;;;;12.73;10.70;;;15.10;99.90;;;-144.05;94.74;125687.94;6161783;23;20009;-88
2022/06/08 00:03:23;;;;;;;13.85;10.68;;;15.10;99.90;;;-144.05;94.98;125687.94;6187845;23;20076;-87
2022/06/08 00:05:50;;;;;;;13.63;11.25;;;15.20;99.90;;;-144.05;94.73;125687.94;6161728;23;20087;-88
2022/06/08 00:08:16;;;;;;;17.10;12.32;;;15.20;99.90;;;-144.05;94.80;125687.94;6164133;23;20012;-87
2022/06/08 00:10:42;;;;;;;18.38;13.60;;;15.20;99.90;;;-144.05;95.34;125687.94;6175829;23;20036;-87
2022/06/08 00:13:12;;;;;;;17.10;13.27;;;15.20;99.90;;;-144.05;95.37;125687.94;6176129;23;20009;-88
2022/06/08 00:15:40;;;;;;;17.95;13.48;;;15.20;99.90;;;-144.05;94.96;125687.94;6167384;23;20334;-85
2022/06/08 00:18:07;;;;;;;18.10;14.35;;;15.20;99.90;;;-144.05;95.17;125687.94;6161297;23;20017;-88
2022/06/08 00:20:34;;;;;;;19.50;15.10;;;15.10;99.90;;;-144.05;95.42;125687.94;6187958;23;20005;-84
2022/06/08 00:23:00;;;;;;;19.05;14.85;;;15.10;99.90;;;-144.05;95.68;125687.94;6161895;23;20330;-87
2022/06/08 00:25:26;;;;;;;19.05;15.02;;;15.00;99.90;;;-144.05;95.28;125687.94;6162228;23;20087;-90
2022/06/08 00:27:52;;;;;;;23.77;17.17;;;15.00;99.90;;;-144.05;95.90;125687.94;6161093;23;20020;-87
2022/06/08 00:30:19;;;;;;;20.63;16.45;;;15.00;99.90;;;-144.05;95.91;125687.94;6161642;23;20005;-86
2022/06/08 00:32:45;;;;;;;21.65;17.48;;;14.90;99.90;;;-144.05;96.08;125687.94;6161888;23;20013;-87
2022/06/08 00:35:13;;;;;;;28.10;18.70;;;14.90;99.90;;;-144.05;95.93;125687.94;6161688;23;20615;-87
2022/06/08 00:37:39;;;;;;;25.13;18.88;;;14.90;99.90;;;-144.05;95.84;125687.94;6161483;23;20005;-87
2022/06/08 00:40:10;;;;;;;26.63;19.38;;;14.90;99.90;;;-144.05;96.34;125687.94;6161917;23;20009;-89
2022/06/08 00:42:41;;;;;;;28.23;21.23;;;14.90;99.90;;;-144.05;96.22;125687.94;6162062;23;20439;-88
2022/06/08 00:45:16;;;;;;;30.85;21.83;;;14.80;99.90;;;-144.05;96.22;125687.94;6161744;23;20009;-89
2022/06/08 00:47:59;;;;;;;35.97;22.90;;;14.80;99.90;;;-144.05;96.41;125687.94;6162716;23;20036;-86
2022/06/08 00:50:51;;;;;;;33.10;21.20;;;14.80;99.90;;;-144.05;96.40;125687.94;6162327;23;20276;-90
2022/06/08 00:53:32;;;;;;;34.90;23.40;;;14.80;99.90;;;-144.05;96.47;125687.94;6189054;23;20005;-87
2022/06/08 00:56:06;;;;;;;36.08;24.10;;;14.80;99.90;;;-144.05;96.38;125687.94;6163079;23;20354;-87
2022/06/08 00:58:37;;;;;;;38.67;26.42;;;14.70;99.90;;;-144.05;96.88;125687.94;6163143;23;20009;-85
2022/06/08 01:01:03;;;;;;;41.80;27.52;;;14.70;99.90;;;-144.05;96.60;125687.94;6162895;23;20009;-88
2022/06/08 01:03:30;;;;;;;39.72;25.90;;;14.70;99.90;;;-144.05;96.65;125687.94;6163063;23;20063;-89
2022/06/08 01:06:13;;;;;;;38.28;25.88;;;14.70;99.90;;;-144.05;96.71;125687.94;6191746;23;20009;-91
2022/06/08 01:08:46;;;;;;;37.97;25.08;;;14.70;99.90;;;-144.05;96.55;125687.94;6167629;23;20056;-90
2022/06/08 01:11:39;;;;;;;39.78;25.77;;;14.70;99.90;;;-144.05;96.46;125687.94;6163618;23;20016;-86
2022/06/08 01:14:13;;;;;;;40.15;27.77;;;14.60;99.90;;;-144.05;96.62;125687.94;6160920;23;20009;-87
2022/06/08 01:17:26;;;;;;;38.97;25.95;;;14.60;99.90;;;-144.05;96.49;125687.94;6160977;23;20016;-87
2022/06/08 01:19:52;;;;;;;37.85;26.80;;;14.60;99.90;;;-144.05;96.39;125687.94;6096987;23;20160;-89
2022/06/08 01:22:20;;;;;;;41.80;27.08;;;14.60;99.90;;;-144.05;96.49;125687.94;6161034;23;20469;-85
2022/06/08 01:24:51;;;;;;;38.22;26.15;;;14.70;99.90;;;-144.05;96.27;125687.94;6160909;23;20005;-86
2022/06/08 01:28:11;;;;;;;41.33;25.40;;;14.70;99.90;;;-144.05;96.20;125687.94;6160866;23;20447;-87
2022/06/08 01:31:22;;;;;;;40.38;25.63;;;14.70;99.90;;;-144.05;95.90;125687.94;6144686;23;20009;-84
2022/06/08 01:34:16;;;;;;;41.72;25.58;;;14.60;99.90;;;-144.05;95.76;125687.94;6185792;23;20001;-88
2022/06/08 01:37:17;;;;;;;46.25;28.77;;;14.60;99.90;;;-144.05;95.99;125687.94;6160757;23;20013;-88
2022/06/08 01:40:18;;;;;;;43.80;27.88;;;14.60;99.90;;;-144.05;95.76;125687.94;6160859;23;20013;-86
2022/06/08 01:43:46;;;;;;;44.80;28.55;;;14.60;99.90;;;-144.05;95.92;125687.94;6160745;23;20009;-89
2022/06/08 01:46:29;;;;;;;42.97;27.60;;;14.60;99.90;;;-144.05;96.10;125687.94;6162547;23;20040;-91
2022/06/08 01:49:32;;;;;;;41.90;28.02;;;14.50;99.90;;;-144.05;95.88;125687.94;6163605;23;20009;-92
2022/06/08 01:52:20;;;;;;;38.58;26.63;;;14.50;99.90;;;-144.05;95.79;125687.94;6163526;23;20035;-87
2022/06/08 01:55:05;;;;;;;39.40;27.23;;;14.50;99.90;;;-144.05;95.88;125687.94;6159622;23;20063;-85
2022/06/08 01:57:50;;;;;;;39.33;28.03;;;14.40;99.90;;;-144.05;96.03;125687.94;6159917;23;20005;-89
2022/06/08 02:00:30;;;;;;;42.22;28.45;;;14.40;99.90;;;-144.05;95.95;125687.94;6159549;23;20005;-85
2022/06/08 02:03:25;;;;;;;40.47;26.48;;;14.40;99.90;;;-144.05;95.75;125687.94;6160026;23;20009;-87
2022/06/08 02:06:21;;;;;;;42.58;27.42;;;14.40;99.90;;;-144.05;95.87;125687.94;6159705;23;20040;-86
2022/06/08 02:09:12;;;;;;;39.42;25.30;;;14.30;99.90;;;-144.05;95.93;125687.94;6159945;23;20004;-86
2022/06/08 02:12:03;;;;;;;40.42;27.08;;;14.30;99.90;;;-144.05;95.71;125687.94;6186723;23;20036;-85
2022/06/08 02:15:09;;;;;;;40.65;27.23;;;14.20;99.90;;;-144.05;96.43;125687.94;6159915;23;20008;-86
2022/06/08 02:17:55;;;;;;;45.00;27.27;;;14.20;99.90;;;-144.05;96.44;125687.94;6159676;23;20017;-87
2022/06/08 02:20:48;;;;;;;41.47;28.73;;;14.20;99.90;;;-144.05;96.41;125687.94;6161124;23;20013;-86
2022/06/08 02:23:31;;;;;;;42.10;27.02;;;14.20;99.90;;;-144.05;96.52;125687.94;6186915;23;20394;-87
2022/06/08 02:26:14;;;;;;;38.33;26.70;;;14.20;99.90;;;-144.05;95.98;125687.94;6159810;23;20021;-86
2022/06/08 02:28:58;;;;;;;37.92;25.48;;;14.20;99.90;;;-144.05;96.17;125687.94;6159854;23;20032;-88
2022/06/08 02:31:46;;;;;;;39.47;27.17;;;14.10;99.90;;;-144.05;95.83;125687.94;6160477;23;20016;-89
2022/06/08 02:34:31;;;;;;;41.53;26.38;;;14.10;99.90;;;-144.05;95.60;125687.94;6182624;23;19992;-88
2022/06/08 02:37:20;;;;;;;38.67;25.67;;;14.00;99.90;;;-144.05;95.66;125687.94;6183893;23;20470;-86
2022/06/08 02:40:05;;;;;;;41.13;26.05;;;14.00;99.90;;;-144.05;95.58;125687.94;6198395;23;20053;-87
2022/06/08 02:42:48;;;;;;;40.83;26.35;;;13.90;99.90;;;-144.05;95.88;125687.94;6162133;23;20336;-84
2022/06/08 02:45:29;;;;;;;35.63;24.40;;;13.90;99.90;;;-144.05;95.79;125687.94;6187885;23;20088;-88
2022/06/08 02:48:04;;;;;;;38.17;24.45;;;13.90;99.90;;;-144.05;95.78;125687.94;6161535;23;20009;-86
2022/06/08 02:50:32;;;;;;;39.00;27.10;;;13.90;99.90;;;-144.05;95.81;125687.94;6162520;23;20015;-85
2022/06/08 02:53:16;;;;;;;41.83;26.60;;;13.80;99.90;;;-144.05;95.98;125687.94;6162631;23;20013;-86
2022/06/08 02:56:08;;;;;;;40.63;26.75;;;13.80;99.90;;;-144.05;95.96;125687.94;6162895;23;20013;-87
2022/06/08 02:59:04;;;;;;;41.25;26.08;;;13.80;99.90;;;-144.05;96.05;125687.94;6162699;23;20036;-89
2022/06/08 03:02:04;;;;;;;38.83;24.85;;;13.80;99.90;;;-144.05;96.01;125687.94;6162332;23;20435;-88
2022/06/08 03:04:49;;;;;;;43.53;26.75;;;13.70;99.90;;;-144.05;95.88;125687.94;6162348;23;20009;-85
2022/06/08 03:07:31;;;;;;;42.00;25.85;;;13.70;99.90;;;-144.05;96.02;125687.94;6162118;23;20095;-87
2022/06/08 03:10:08;;;;;;;43.60;27.05;;;13.70;99.90;;;-144.05;96.12;125687.94;6162350;23;20431;-89
2022/06/08 03:13:02;;;;;;;34.03;22.08;;;13.70;99.90;;;-144.05;95.75;125687.94;6162782;23;20406;-87
2022/06/08 03:15:28;;;;;;;36.95;23.35;;;13.70;99.90;;;-144.05;95.82;125687.94;6162670;23;20436;-86
2022/06/08 03:17:54;;;;;;;39.78;23.98;;;13.60;99.90;;;-144.05;95.88;125687.94;6187743;23;20021;-83
2022/06/08 03:20:24;;;;;;;41.08;25.88;;;13.60;99.90;;;-144.05;95.94;125687.94;6138654;23;20461;-86
2022/06/08 03:22:50;;;;;;;43.03;27.90;;;13.60;99.90;;;-144.05;96.03;125687.94;6189405;23;20039;-85
2022/06/08 03:25:17;;;;;;;45.42;28.05;;;13.60;99.90;;;-144.05;96.22;125687.94;6161742;23;20005;-87
2022/06/08 03:27:46;;;;;;;55.05;30.10;;;13.60;99.90;;;-144.05;96.54;125687.94;6189736;23;20016;-85
2022/06/08 03:30:15;;;;;;;48.17;29.20;;;13.60;99.90;;;-144.05;96.44;125687.94;6188926;23;20001;-89
2022/06/08 03:32:43;;;;;;;39.17;25.02;;;13.70;99.90;;;-144.05;96.38;125687.94;6163148;23;20035;-88
2022/06/08 03:35:10;;;;;;;43.83;27.05;;;13.60;99.90;;;-144.05;96.53;125687.94;6189467;23;20041;-87
2022/06/08 03:37:36;;;;;;;46.00;27.73;;;13.60;99.90;;;-144.05;96.37;125687.94;6162669;23;20097;-87
2022/06/08 03:40:05;;;;;;;49.22;28.02;;;13.70;99.90;;;-144.05;96.61;125687.94;6161466;23;20005;-87
2022/06/08 03:42:31;;;;;;;43.25;26.55;;;13.70;99.90;;;-144.05;96.65;125687.94;6163992;23;20012;-88
2022/06/08 03:44:57;;;;;;;44.80;25.85;;;13.70;99.90;;;-144.05;96.75;125687.94;6191555;23;20001;-86
2022/06/08 03:47:33;;;;;;;53.63;29.33;;;13.80;99.90;;;-144.05;96.57;125687.94;6162586;23;20009;-86
2022/06/08 03:50:06;;;;;;;52.92;28.70;;;13.80;99.90;;;-144.05;96.72;125687.94;6161586;23;20193;-87
2022/06/08 03:52:43;;;;;;;49.03;26.50;;;13.80;99.90;;;-144.05;96.46;125687.94;6160057;23;20045;-84
2022/06/08 03:55:12;;;;;;;41.88;25.40;;;13.80;99.90;;;-144.05;96.51;125687.94;6161967;23;20427;-86
2022/06/08 03:57:44;;;;;;;47.83;27.23;;;13.90;99.90;;;-144.05;96.43;125687.94;6189436;23;20001;-86
2022/06/08 04:00:14;;;;;;;48.15;27.17;;;13.90;99.90;;;-144.05;96.50;125687.94;6162279;23;20060;-85
2022/06/08 04:02:42;;;;;;;44.45;25.13;;;13.90;99.90;;;-144.05;96.43;125687.94;6160498;23;20383;-87
2022/06/08 04:05:09;;;;;;;43.10;26.00;;;14.00;99.90;;;-144.05;96.39;125687.94;6191161;23;20076;-86
2022/06/08 04:07:35;;;;;;;42.22;25.15;;;14.00;99.90;;;-144.05;96.21;125687.94;6189811;23;20005;-85
2022/06/08 04:10:03;;;;;;;42.80;25.90;;;14.10;99.90;;;-144.05;96.05;125687.94;6161389;23;20071;-84
2022/06/08 04:12:29;;;;;;;35.33;22.40;;;14.20;99.90;;;-144.05;95.67;125687.94;6161957;23;20075;-87
2022/06/08 04:14:55;;;;;;;44.20;24.27;;;14.20;99.90;;;-144.05;95.46;125687.94;6161907;23;20013;-84
2022/06/08 04:17:21;;;;;;;36.63;22.83;;;14.30;99.90;;;-144.05;95.42;125687.94;6189471;23;20060;-86
2022/06/08 04:20:26;;;;;;;37.58;23.25;;;14.40;99.90;;;-144.05;95.29;125687.94;6163573;23;20016;-85
2022/06/08 04:22:52;;;;;;;32.75;22.13;;;14.40;99.90;;;-144.05;95.10;125687.94;6157735;23;20044;-86
2022/06/08 04:25:18;;;;;;;35.10;21.83;;;14.50;99.90;;;-144.05;94.92;125687.94;6161923;23;20006;-86
2022/06/08 04:27:44;;;;;;;31.17;21.00;;;14.70;99.90;;;-144.05;94.50;125687.94;6161901;23;20015;-86
2022/06/08 04:30:11;;;;;;;28.35;20.02;;;14.80;99.90;;;-144.05;93.88;125687.94;6187958;23;20080;-88
2022/06/08 04:32:37;;;;;;;27.45;17.35;;;14.90;99.90;;;-144.05;93.08;125687.94;6162016;23;20016;-88
2022/06/08 04:35:04;;;;;;;24.80;17.10;;;15.00;99.90;;;-144.05;92.67;125687.94;6188665;23;20075;-87
2022/06/08 04:37:30;;;;;;;24.27;16.05;;;15.10;99.90;;;-144.05;91.89;125687.94;6162742;23;20013;-86
2022/06/08 04:40:07;;;;;;;20.30;15.25;;;15.20;99.90;;;-144.05;90.83;125687.94;6190760;23;20009;-82
2022/06/08 04:42:35;;;;;;;18.88;14.60;;;15.20;99.90;;;-144.05;90.60;125687.94;6163743;23;20064;-85
2022/06/08 04:45:04;;;;;;;18.67;13.65;;;15.20;99.90;;;-144.05;90.26;125687.94;6164237;23;20009;-84
2022/06/08 04:47:30;;;;;;;19.52;13.80;;;15.20;99.90;;;-144.05;89.88;125687.94;6164087;23;20001;-86
2022/06/08 04:50:07;;;;;;;17.40;13.65;;;15.30;99.90;;;-144.05;89.54;125687.94;6164426;23;20005;-87
2022/06/08 04:52:36;;;;;;;17.65;12.90;;;15.40;99.90;;;-144.05;89.18;125687.94;6163354;23;20147;-87
2022/06/08 04:55:12;;;;;;;17.42;11.80;;;15.40;99.90;;;-144.05;88.71;125687.94;6164559;23;20140;-87
2022/06/08 04:57:47;;;;;;;14.13;11.65;;;15.50;99.90;;;-144.05;88.28;125687.94;6163966;23;20019;-87
2022/06/08 05:00:31;;;;;;;15.77;10.93;;;15.50;99.90;;;-144.05;88.33;125687.94;6164532;23;20462;-86
2022/06/08 05:02:58;;;;;;;14.18;10.20;;;15.60;99.90;;;-144.05;87.69;125687.94;6163469;23;20015;-86
2022/06/08 05:05:30;;;;;;;11.23;9.38;;;15.60;99.90;;;-144.05;87.50;125687.94;6163877;23;20063;-87
2022/06/08 05:07:58;;;;;;;11.40;9.20;;;15.60;99.90;;;-144.05;86.93;125687.94;6189040;23;20072;-85
2022/06/08 05:10:30;;;;;;;15.07;10.80;;;15.60;99.90;;;-144.05;87.60;125687.94;6186448;23;20062;-84
2022/06/08 05:12:58;;;;;;;10.75;8.55;;;15.70;99.90;;;-144.05;87.13;125687.94;6163612;23;20074;-86
2022/06/08 05:15:31;;;;;;;13.55;8.98;;;15.70;99.90;;;-144.05;86.92;125687.94;6170996;23;20012;-86
2022/06/08 05:18:00;;;;;;;11.80;9.13;;;15.70;99.90;;;-144.05;86.35;125687.94;6171421;23;20005;-87
2022/06/08 05:20:28;;;;;;;12.43;7.78;;;15.90;99.90;;;-144.05;85.61;125687.94;6168148;23;20032;-87
2022/06/08 05:22:57;;;;;;;12.10;7.05;;;16.00;99.90;;;-144.05;85.03;125687.94;6191395;23;20009;-86
2022/06/08 05:25:37;;;;;;;9.88;7.57;;;16.00;99.90;;;-144.05;84.98;125687.94;6165013;23;20001;-85
2022/06/08 05:28:06;;;;;;;14.32;8.27;;;16.10;99.90;;;-144.05;84.77;125687.94;6142061;23;20298;-88
2022/06/08 05:30:33;;;;;;;11.57;7.97;;;16.10;99.90;;;-144.05;84.84;125687.94;6165072;23;19997;-85
2022/06/08 05:33:03;;;;;;;9.10;7.10;;;16.10;99.90;;;-144.05;83.96;125687.94;6165866;23;20001;-85
2022/06/08 05:35:31;;;;;;;9.18;7.68;;;16.20;99.90;;;-144.05;82.96;125687.94;6166728;23;20009;-86
2022/06/08 05:37:57;;;;;;;9.50;6.40;;;16.40;99.90;;;-144.05;82.14;125687.94;6166016;23;20005;-87
2022/06/08 05:40:28;;;;;;;12.00;6.85;;;16.40;99.90;;;-144.05;81.79;125687.94;6164566;23;20025;-84
2022/06/08 05:42:55;;;;;;;9.32;6.15;;;16.50;99.90;;;-144.05;82.35;125687.94;6139449;23;20071;-84
2022/06/08 05:45:30;;;;;;;9.50;6.55;;;16.50;99.90;;;-144.05;82.30;125687.94;6163781;23;20012;-89
2022/06/08 05:47:59;;;;;;;6.53;5.28;;;16.50;99.90;;;-144.05;81.87;125687.94;6163200;23;20005;-83
2022/06/08 05:50:28;;;;;;;6.40;5.18;;;16.70;99.90;;;-144.05;80.75;125687.94;6162351;23;20005;-85
2022/06/08 05:52:55;;;;;;;7.47;4.53;;;17.10;99.90;;;-144.05;79.49;125687.94;6163624;23;20005;-84
2022/06/08 05:55:25;;;;;;;8.30;4.57;;;17.50;99.90;;;-144.05;76.86;125687.94;6163629;23;20005;-87
2022/06/08 05:57:54;;;;;;;7.28;4.05;;;17.80;99.90;;;-144.05;74.79;125687.94;6164822;23;20005;-84
2022/06/08 06:00:46;;;;;;;7.05;3.70;;;18.10;99.90;;;-144.05;73.56;125687.94;6165154;23;20005;-84
2022/06/08 06:03:14;;;;;;;5.88;3.80;;;18.10;99.90;;;-144.05;74.51;125687.94;6164027;23;20008;-87
2022/06/08 06:05:41;;;;;;;7.90;3.38;;;18.00;99.90;;;-144.05;74.65;125687.94;6164709;23;20017;-87
2022/06/08 06:08:10;;;;;;;4.22;3.20;;;17.90;99.90;;;-144.05;74.77;125687.94;6188299;23;20005;-87
2022/06/08 06:11:16;;;;;;;4.03;2.90;;;18.10;99.90;;;-144.05;73.91;125687.94;6164886;23;20308;-89
2022/06/08 06:14:26;;;;;;;4.13;2.73;;;18.40;99.90;;;-144.05;72.28;125687.94;6138174;23;20009;-91
2022/06/08 06:16:58;;;;;;;5.32;2.85;;;18.60;99.90;;;-144.05;71.91;125687.94;6163509;23;20055;-88
2022/06/08 06:23:12;;;;;;;4.28;2.50;;;19.00;99.90;;;-144.05;68.77;125687.94;6160976;23;20044;-84
2022/06/08 06:25:39;;;;;;;3.85;2.10;;;18.90;99.90;;;-144.05;67.86;125687.94;6188842;23;20040;-89
2022/06/08 06:28:06;;;;;;;4.00;2.00;;;18.90;99.90;;;-144.05;68.25;125687.94;6164013;23;20033;-89
2022/06/08 06:47:15;;;;;;;2.85;1.63;;;18.80;99.90;;;-144.05;66.62;125687.94;6173836;23;20005;-88
2022/06/08 06:54:22;;;;;;;2.55;1.30;;;18.70;99.90;;;-144.05;66.52;125687.94;6032209;23;20055;-86
2022/06/08 07:00:55;;;;;;;3.55;1.83;;;18.90;99.90;;;-144.05;64.96;125687.94;6190475;23;20027;-88
2022/06/08 07:04:58;;;;;;;;;;;;;;;;;;;;;
2022/06/08 07:12:35;;;;;;;1.92;1.33;;;19.90;99.90;;;-144.05;61.61;125687.94;6233096;23;20028;-85
2022/06/08 07:24:21;;;;;;;3.88;1.60;;;21.10;99.90;;;-144.05;55.61;125687.94;6202462;23;20025;-89
2022/06/08 07:32:38;;;;;;;;;;;;;;;;;;;;;
2022/06/08 07:35:40;;;;;;;4.15;0.80;;;22.30;99.90;;;-144.05;53.43;125687.94;6038286;23;20219;-89
2022/06/08 07:42:49;;;;;;;1.25;0.80;;;22.30;99.90;;;-144.05;52.19;125687.94;6039055;23;20444;-87
2022/06/08 07:46:33;;;;;;;2.33;1.10;;;22.40;99.90;;;-144.05;52.21;125687.94;6034091;23;20046;-89
2022/06/08 07:52:19;;;;;;;;;;;;;;;;;;;;;
2022/06/08 07:58:51;;;;;;;2.85;1.00;;;22.70;99.90;;;-144.05;51.85;125687.94;6041962;23;20483;-89
2022/06/08 08:02:31;;;;;;;;;;;;;;;;;;;;;
2022/06/08 08:05:32;;;;;;;1.13;0.93;;;22.70;99.90;;;-144.05;50.84;125687.94;6237376;23;20015;-88
2022/06/08 08:08:27;;;;;;;6.03;1.13;;;22.60;99.90;;;-144.05;50.56;125687.94;6212865;23;20073;-86
2022/06/08 08:23:34;;;;;;;3.80;0.70;;;22.10;99.90;;;-144.05;51.08;125687.94;6164701;23;20585;-87
2022/06/08 08:34:58;;;;;;;2.72;0.80;;;21.80;99.90;;;-144.05;50.41;125687.94;6133556;23;20067;-86
2022/06/08 08:45:20;;;;;;;2.42;0.90;;;22.30;99.90;;;-144.05;49.01;125687.94;6022926;23;20022;-87
2022/06/08 08:48:20;;;;;;;0.88;0.60;;;23.00;99.90;;;-144.05;46.71;125687.94;6016158;23;20434;-87
2022/06/08 08:51:20;;;;;;;2.47;0.60;;;23.50;99.90;;;-144.05;45.81;125687.94;6016941;23;20098;-89
2022/06/08 08:54:30;;;;;;;1.02;0.70;;;23.70;99.90;;;-144.05;45.76;125687.94;6017955;23;20014;-88
2022/06/08 08:58:04;;;;;;;2.20;0.63;;;23.70;99.90;;;-144.05;45.03;125687.94;6099398;23;20025;-88
2022/06/08 09:01:28;;;;;;;2.33;0.73;;;23.40;99.90;;;-144.05;45.29;125687.94;6159801;23;20013;-89
2022/06/08 09:04:47;;;;;;;1.83;0.80;;;23.00;99.90;;;-144.05;45.36;125687.94;6146080;23;20113;-87
2022/06/08 09:07:21;;;;;;;2.53;0.70;;;23.30;99.90;;;-144.05;45.31;125687.94;6202820;23;20013;-88
2022/06/08 09:09:49;;;;;;;1.55;0.68;;;23.80;99.90;;;-144.05;43.17;125687.94;6187877;23;20013;-89
2022/06/08 09:13:12;;;;;;;1.40;0.60;;;23.80;99.90;;;-144.05;42.73;125687.94;6187716;23;20088;-88
2022/06/08 09:16:00;;;;;;;2.42;0.70;;;24.10;99.90;;;-144.05;42.98;125687.94;6167807;23;20060;-90
2022/06/08 09:23:06;;;;;;;1.80;0.50;;;24.90;99.90;;;-144.05;39.53;125687.94;5957916;24;20013;-85
2022/06/08 09:26:47;;;;;;;2.65;0.77;;;25.20;95.90;;;-144.05;40.29;125687.94;5994563;23;20018;-88
2022/06/08 09:29:53;;;;;;;2.38;0.60;;;24.90;93.60;;;-144.05;40.44;125687.94;6104008;23;20101;-88
2022/06/08 09:32:56;;;;;;;4.65;0.55;;;24.60;94.30;;;-144.05;40.54;125687.94;6160614;23;20005;-86
2022/06/08 09:36:06;;;;;;;4.43;0.68;;;24.40;95.00;;;-144.05;40.58;125687.94;6209303;23;20052;-88
2022/06/08 09:38:41;;;;;;;3.30;0.70;;;24.60;95.60;;;-144.05;41.21;125687.94;6189472;23;20095;-92
2022/06/08 09:41:54;;;;;;;5.03;0.50;;;24.40;95.80;;;-144.05;43.34;125687.94;6189467;23;20031;-87
2022/06/08 09:45:08;;;;;;;3.53;0.80;;;23.80;98.60;;;-144.05;42.54;125687.94;6189688;23;20036;-89
2022/06/08 09:52:27;;;;;;;1.15;0.60;;;23.90;99.90;;;-144.05;43.07;125687.94;6190326;23;20068;-88
2022/06/08 09:56:00;;;;;;;3.53;0.90;;;23.60;99.90;;;-144.05;42.52;125687.94;6214928;23;20005;-88
2022/06/08 09:58:55;;;;;;;1.42;0.60;;;23.10;99.90;;;-144.05;41.15;125687.94;6153015;23;20013;-88
2022/06/08 10:01:50;;;;;;;4.30;1.10;;;23.40;98.60;;;-144.05;40.57;125687.94;6166197;23;20022;-86
2022/06/08 10:04:31;;;;;;;4.07;0.77;;;23.60;96.10;;;-144.05;42.55;125687.94;6215799;23;20008;-89
2022/06/08 10:08:13;;;;;;;4.97;0.98;;;23.00;99.30;;;-144.05;44.20;125687.94;6189985;23;20062;-87
2022/06/08 10:11:42;;;;;;;1.45;0.80;;;22.60;99.90;;;-144.05;44.17;125687.94;6211835;23;20015;-89
2022/06/08 10:14:21;;;;;;;2.58;0.70;;;22.40;99.90;;;-144.05;43.90;125687.94;6191125;23;20072;-89
2022/06/08 10:20:47;;;;;;;3.10;1.00;;;22.10;99.90;;;-144.05;42.27;125687.94;6108564;23;20014;-88
2022/06/08 10:23:47;;;;;;;2.72;0.70;;;23.00;99.90;;;-144.05;43.53;125687.94;6109994;23;20092;-87
2022/06/08 10:27:15;;;;;;;2.05;0.82;;;22.80;99.90;;;-144.05;43.05;125687.94;6188913;23;20343;-88
2022/06/08 10:30:28;;;;;;;4.07;0.77;;;23.20;99.90;;;-144.05;41.02;125687.94;6188934;23;20005;-89
2022/06/08 10:33:24;;;;;;;1.00;0.60;;;23.50;99.90;;;-144.05;42.71;125687.94;6187382;23;20013;-87
2022/06/08 10:35:58;;;;;;;5.67;0.97;;;23.10;99.90;;;-144.05;42.30;125687.94;6186121;23;20004;-87
2022/06/08 10:38:38;;;;;;;2.65;0.93;;;22.80;99.90;;;-144.05;41.57;125687.94;6165263;23;20317;-86
2022/06/08 10:44:04;;;;;;;1.90;0.50;;;23.80;99.00;;;-144.05;38.77;125687.94;6190538;23;20016;-87
2022/06/08 10:46:46;;;;;;;2.65;0.93;;;24.60;92.70;;;-144.05;38.93;125687.94;6224698;23;20059;-89
2022/06/08 10:49:57;;;;;;;2.38;0.70;;;25.10;92.00;;;-144.05;38.42;125687.94;6190343;23;20451;-89
2022/06/08 10:52:41;;;;;;;2.05;0.77;;;25.00;89.80;;;-144.05;38.51;125687.94;6188338;23;20005;-88
2022/06/08 10:55:24;;;;;;;3.78;0.88;;;25.10;87.10;;;-144.05;38.57;125687.94;6202262;23;20072;-88
2022/06/08 10:58:10;;;;;;;2.63;0.57;;;25.40;87.40;;;-144.05;37.86;125687.94;6194792;23;20013;-88
2022/06/08 11:01:02;;;;;;;3.25;0.80;;;25.40;80.60;;;-144.05;36.79;125687.94;6196255;23;20009;-87
2022/06/08 11:04:21;;;;;;;5.43;1.15;;;25.10;78.10;;;-144.05;36.64;125687.94;6200462;23;20005;-86
2022/06/08 11:07:14;;;;;;;1.88;0.93;;;24.40;73.70;;;-144.05;37.60;125687.94;6188109;23;20004;-84
2022/06/08 11:09:46;;;;;;;1.92;0.60;;;23.80;79.40;;;-144.05;37.23;125687.94;6210571;23;20012;-86
2022/06/08 11:12:31;;;;;;;2.40;0.75;;;23.60;79.30;;;-144.05;37.19;125687.94;6215086;23;20005;-86
2022/06/08 11:15:47;;;;;;;3.95;0.80;;;23.60;82.20;;;-144.05;36.40;125687.94;6190946;23;20005;-88
2022/06/08 11:18:46;;;;;;;4.43;0.68;;;24.50;81.30;;;-144.05;34.95;125687.94;6098245;23;20017;-87
2022/06/08 11:21:51;;;;;;;3.13;0.80;;;25.40;77.30;;;-144.05;35.73;125687.94;6073832;23;20447;-88
2022/06/08 11:24:55;;;;;;;1.95;0.70;;;25.30;73.60;;;-144.05;37.43;125687.94;6099068;23;20037;-86
2022/06/08 11:27:33;;;;;;;6.45;1.00;;;24.90;76.40;;;-144.05;38.12;125687.94;6187812;23;20009;-88
2022/06/08 11:30:23;;;;;;;3.25;1.00;;;24.40;79.50;;;-144.05;38.89;125687.94;6212827;23;20088;-87
2022/06/08 11:32:52;;;;;;;4.53;1.13;;;23.70;81.10;;;-144.05;39.82;125687.94;6188213;23;20028;-87
2022/06/08 11:36:11;;;;;;;2.40;0.90;;;23.00;87.30;;;-144.05;41.34;125687.94;6189724;23;20060;-86
2022/06/08 11:39:20;;;;;;;3.55;0.98;;;22.70;93.50;;;-144.05;48.21;125687.94;6188355;23;20096;-89
2022/06/08 11:42:24;;;;;;;3.35;1.20;;;21.80;99.90;;;-144.05;54.36;125687.94;6213733;23;20043;-88
2022/06/08 11:45:52;;;;;;;6.93;1.60;;;20.90;99.90;;;-144.05;56.25;125687.94;6188057;23;20010;-86
2022/06/08 11:49:06;;;;;;;6.03;1.60;;;20.40;99.90;;;-144.05;58.19;125687.94;6188965;23;20055;-88
2022/06/08 11:53:08;;;;;;;5.13;1.50;;;20.20;99.90;;;-144.05;56.03;125687.94;6098988;23;20022;-89
2022/06/08 11:56:24;;;;;;;3.03;1.08;;;20.30;99.90;;;-144.05;54.64;125687.94;6076437;23;20032;-87
2022/06/08 11:58:59;;;;;;;4.55;0.88;;;20.50;99.90;;;-144.05;53.73;125687.94;6184083;23;20075;-88
2022/06/08 12:01:31;;;;;;;2.45;1.00;;;20.50;99.90;;;-144.05;53.41;125687.94;6190188;23;20453;-89
2022/06/08 12:04:15;;;;;;;3.63;1.08;;;20.50;99.90;;;-144.05;52.85;125687.94;6189844;23;20009;-86
2022/06/08 12:06:44;;;;;;;3.38;1.13;;;20.60;99.90;;;-144.05;52.23;125687.94;6189077;23;20008;-87
2022/06/08 12:09:31;;;;;;;3.38;1.23;;;20.50;99.90;;;-144.05;51.13;125687.94;6189368;23;20029;-88
2022/06/08 12:12:18;;;;;;;3.97;1.40;;;20.50;99.90;;;-144.05;48.73;125687.94;6190639;23;20005;-86
2022/06/08 12:14:46;;;;;;;5.68;1.40;;;20.40;99.90;;;-144.05;51.49;125687.94;6189314;23;20100;-89
2022/06/08 12:17:15;;;;;;;3.13;1.10;;;20.30;99.90;;;-144.05;53.20;125687.94;6191034;23;20067;-89
2022/06/08 12:19:55;;;;;;;4.05;1.02;;;20.30;99.90;;;-144.05;54.37;125687.94;6191307;23;20008;-86
2022/06/08 12:22:38;;;;;;;3.22;1.35;;;20.10;99.90;;;-144.05;56.73;125687.94;6193710;23;20005;-86
2022/06/08 12:25:13;;;;;;;4.65;1.27;;;19.90;99.90;;;-144.05;58.56;125687.94;6192306;23;20099;-86
2022/06/08 12:27:52;;;;;;;4.53;1.33;;;19.70;99.90;;;-144.05;60.49;125687.94;6190803;23;20001;-88
2022/06/08 12:30:30;;;;;;;4.07;1.23;;;19.50;99.90;;;-144.05;61.70;125687.94;6189515;23;20001;-86
2022/06/08 12:33:29;;;;;;;3.75;1.20;;;19.30;99.90;;;-144.05;62.52;125687.94;6189787;23;20039;-86
2022/06/08 12:36:28;;;;;;;5.47;1.48;;;19.10;99.90;;;-144.05;63.65;125687.94;6189811;23;20005;-89
2022/06/08 12:39:42;;;;;;;3.60;1.42;;;18.80;99.90;;;-144.05;68.12;125687.94;6189656;23;20019;-87
2022/06/08 12:42:34;;;;;;;4.85;1.23;;;18.40;99.90;;;-144.05;71.83;125687.94;6215219;23;20009;-90
2022/06/08 12:45:02;;;;;;;3.75;1.42;;;17.90;99.90;;;-144.05;73.90;125687.94;6188880;23;20004;-87
2022/06/08 12:47:51;;;;;;;4.60;1.50;;;17.50;99.90;;;-144.05;77.92;125687.94;6189519;23;20021;-89
2022/06/08 12:50:29;;;;;;;5.60;1.65;;;17.20;99.90;;;-144.05;78.37;125687.94;6214885;23;20440;-87
2022/06/08 12:52:58;;;;;;;4.82;1.90;;;17.00;99.90;;;-144.05;79.35;125687.94;6190115;23;20063;-88